sensor_id;sensor_type;location;lat;lon;timestamp;pressure;altitude;pressure_sealevel;temperature;humidity
58473;BME280;44775;51.564;5.460;2024-01-06T00:02:14;100031.56;;;7.00;100.00
58473;BME280;44775;51.564;5.460;2024-01-06T00:04:40;100038.22;;;7.12;100.00
58473;BME280;44775;51.564;5.460;2024-01-06T00:07:05;100042.19;;;7.08;100.00
58473;BME280;44775;51.564;5.460;2024-01-06T00:09:30;100039.66;;;6.74;100.00
58473;BME280;44775;51.564;5.460;2024-01-06T00:11:55;100040.53;;;6.82;100.00
58473;BME280;44775;51.564;5.460;2024-01-06T00:14:21;100041.69;;;6.72;100.00
58473;BME280;44775;51.564;5.460;2024-01-06T00:16:46;100038.00;;;6.81;100.00
58473;BME280;44775;51.564;5.460;2024-01-06T00:19:11;100044.97;;;6.66;100.00
58473;BME280;44775;51.564;5.460;2024-01-06T00:21:36;100055.09;;;6.62;100.00
58473;BME280;44775;51.564;5.460;2024-01-06T00:24:04;100064.53;;;6.65;100.00
58473;BME280;44775;51.564;5.460;2024-01-06T00:26:30;100065.28;;;6.99;100.00
58473;BME280;44775;51.564;5.460;2024-01-06T00:28:55;100067.03;;;6.74;100.00
58473;BME280;44775;51.564;5.460;2024-01-06T00:31:20;100069.63;;;6.42;100.00
58473;BME280;44775;51.564;5.460;2024-01-06T00:33:45;100071.03;;;6.62;100.00
58473;BME280;44775;51.564;5.460;2024-01-06T00:36:11;100069.84;;;6.65;100.00
58473;BME280;44775;51.564;5.460;2024-01-06T00:38:37;100074.53;;;6.79;100.00
58473;BME280;44775;51.564;5.460;2024-01-06T00:41:02;100074.38;;;6.72;100.00
58473;BME280;44775;51.564;5.460;2024-01-06T00:43:27;100081.31;;;6.73;100.00
58473;BME280;44775;51.564;5.460;2024-01-06T00:45:53;100071.91;;;6.87;100.00
58473;BME280;44775;51.564;5.460;2024-01-06T00:48:18;100073.22;;;6.91;100.00
58473;BME280;44775;51.564;5.460;2024-01-06T00:50:43;100071.06;;;6.86;100.00
58473;BME280;44775;51.564;5.460;2024-01-06T00:53:09;100079.84;;;6.79;100.00
58473;BME280;44775;51.564;5.460;2024-01-06T00:55:34;100066.19;;;6.57;100.00
58473;BME280;44775;51.564;5.460;2024-01-06T00:58:00;100076.97;;;6.64;100.00
58473;BME280;44775;51.564;5.460;2024-01-06T01:00:25;100070.34;;;6.68;100.00
58473;BME280;44775;51.564;5.460;2024-01-06T01:02:52;100082.88;;;6.92;100.00
58473;BME280;44775;51.564;5.460;2024-01-06T01:05:17;100079.34;;;6.83;100.00
58473;BME280;44775;51.564;5.460;2024-01-06T01:07:42;100079.44;;;6.49;100.00
58473;BME280;44775;51.564;5.460;2024-01-06T01:10:08;100084.81;;;6.74;100.00
58473;BME280;44775;51.564;5.460;2024-01-06T01:12:35;100097.22;;;6.57;100.00
58473;BME280;44775;51.564;5.460;2024-01-06T01:15:00;100096.56;;;6.55;100.00
58473;BME280;44775;51.564;5.460;2024-01-06T01:17:25;100092.75;;;6.23;100.00
58473;BME280;44775;51.564;5.460;2024-01-06T01:19:50;100097.25;;;6.31;100.00
58473;BME280;44775;51.564;5.460;2024-01-06T01:22:16;100101.69;;;6.48;100.00
58473;BME280;44775;51.564;5.460;2024-01-06T01:24:42;100103.81;;;6.45;100.00
58473;BME280;44775;51.564;5.460;2024-01-06T01:27:07;100106.78;;;6.42;100.00
58473;BME280;44775;51.564;5.460;2024-01-06T01:29:32;100110.53;;;6.65;100.00
58473;BME280;44775;51.564;5.460;2024-01-06T01:31:58;100118.81;;;6.62;100.00
58473;BME280;44775;51.564;5.460;2024-01-06T01:34:23;100120.75;;;6.52;100.00
58473;BME280;44775;51.564;5.460;2024-01-06T01:36:48;100118.44;;;6.57;100.00
58473;BME280;44775;51.564;5.460;2024-01-06T01:39:13;100122.47;;;6.27;100.00
58473;BME280;44775;51.564;5.460;2024-01-06T01:41:39;100122.16;;;6.30;100.00
58473;BME280;44775;51.564;5.460;2024-01-06T01:44:05;100129.69;;;6.51;100.00
58473;BME280;44775;51.564;5.460;2024-01-06T01:46:30;100129.78;;;6.33;100.00
58473;BME280;44775;51.564;5.460;2024-01-06T01:48:57;100139.56;;;6.32;100.00
58473;BME280;44775;51.564;5.460;2024-01-06T01:51:29;100141.34;;;6.24;100.00
58473;BME280;44775;51.564;5.460;2024-01-06T01:53:55;100141.44;;;6.14;100.00
58473;BME280;44775;51.564;5.460;2024-01-06T01:56:22;100150.06;;;6.08;100.00
58473;BME280;44775;51.564;5.460;2024-01-06T01:58:47;100146.53;;;5.99;100.00
58473;BME280;44775;51.564;5.460;2024-01-06T02:01:13;100152.75;;;6.16;100.00
58473;BME280;44775;51.564;5.460;2024-01-06T02:03:40;100154.94;;;6.21;100.00
58473;BME280;44775;51.564;5.460;2024-01-06T02:06:06;100157.72;;;6.11;100.00
58473;BME280;44775;51.564;5.460;2024-01-06T02:08:31;100149.91;;;6.09;100.00
58473;BME280;44775;51.564;5.460;2024-01-06T02:10:57;100156.66;;;6.04;100.00
58473;BME280;44775;51.564;5.460;2024-01-06T02:13:23;100160.31;;;6.37;100.00
58473;BME280;44775;51.564;5.460;2024-01-06T02:15:49;100155.72;;;6.13;100.00
58473;BME280;44775;51.564;5.460;2024-01-06T02:18:14;100170.00;;;6.20;100.00
58473;BME280;44775;51.564;5.460;2024-01-06T02:20:43;100166.53;;;6.46;100.00
58473;BME280;44775;51.564;5.460;2024-01-06T02:23:08;100169.88;;;6.56;100.00
58473;BME280;44775;51.564;5.460;2024-01-06T02:25:34;100178.25;;;6.35;100.00
58473;BME280;44775;51.564;5.460;2024-01-06T02:28:00;100176.56;;;6.34;100.00
58473;BME280;44775;51.564;5.460;2024-01-06T02:30:25;100184.50;;;6.26;100.00
58473;BME280;44775;51.564;5.460;2024-01-06T02:32:51;100181.63;;;6.19;100.00
58473;BME280;44775;51.564;5.460;2024-01-06T02:35:16;100187.00;;;6.01;100.00
58473;BME280;44775;51.564;5.460;2024-01-06T02:37:41;100198.03;;;6.14;100.00
58473;BME280;44775;51.564;5.460;2024-01-06T02:40:07;100207.81;;;5.96;100.00
58473;BME280;44775;51.564;5.460;2024-01-06T02:42:33;100205.34;;;5.95;100.00
58473;BME280;44775;51.564;5.460;2024-01-06T02:44:58;100207.69;;;5.98;100.00
58473;BME280;44775;51.564;5.460;2024-01-06T02:47:23;100207.03;;;6.22;100.00
58473;BME280;44775;51.564;5.460;2024-01-06T02:49:48;100210.19;;;6.25;100.00
58473;BME280;44775;51.564;5.460;2024-01-06T02:52:14;100216.16;;;6.27;100.00
58473;BME280;44775;51.564;5.460;2024-01-06T02:54:39;100222.13;;;6.03;100.00
58473;BME280;44775;51.564;5.460;2024-01-06T02:57:05;100220.94;;;6.24;100.00
58473;BME280;44775;51.564;5.460;2024-01-06T02:59:30;100234.69;;;6.19;100.00
58473;BME280;44775;51.564;5.460;2024-01-06T03:01:55;100238.00;;;5.95;100.00
58473;BME280;44775;51.564;5.460;2024-01-06T03:04:20;100235.38;;;6.21;100.00
58473;BME280;44775;51.564;5.460;2024-01-06T03:06:46;100242.91;;;6.34;100.00
58473;BME280;44775;51.564;5.460;2024-01-06T03:09:16;100247.94;;;6.19;100.00
58473;BME280;44775;51.564;5.460;2024-01-06T03:11:42;100243.13;;;5.97;100.00
58473;BME280;44775;51.564;5.460;2024-01-06T03:14:07;100257.56;;;6.20;100.00
58473;BME280;44775;51.564;5.460;2024-01-06T03:16:32;100263.44;;;6.06;100.00
58473;BME280;44775;51.564;5.460;2024-01-06T03:18:58;100272.59;;;5.76;100.00
58473;BME280;44775;51.564;5.460;2024-01-06T03:21:24;100264.50;;;5.77;100.00
58473;BME280;44775;51.564;5.460;2024-01-06T03:23:51;100270.75;;;5.76;100.00
58473;BME280;44775;51.564;5.460;2024-01-06T03:26:17;100258.41;;;5.49;100.00
58473;BME280;44775;51.564;5.460;2024-01-06T03:28:43;100278.19;;;5.55;100.00
58473;BME280;44775;51.564;5.460;2024-01-06T03:31:08;100275.38;;;5.38;100.00
58473;BME280;44775;51.564;5.460;2024-01-06T03:33:33;100275.00;;;5.69;100.00
58473;BME280;44775;51.564;5.460;2024-01-06T03:35:58;100279.72;;;5.75;100.00
58473;BME280;44775;51.564;5.460;2024-01-06T03:38:28;100279.41;;;5.60;100.00
58473;BME280;44775;51.564;5.460;2024-01-06T03:40:53;100282.97;;;5.69;100.00
58473;BME280;44775;51.564;5.460;2024-01-06T03:43:19;100286.66;;;5.76;100.00
58473;BME280;44775;51.564;5.460;2024-01-06T03:45:44;100280.59;;;5.66;100.00
58473;BME280;44775;51.564;5.460;2024-01-06T03:48:09;100297.38;;;5.84;100.00
58473;BME280;44775;51.564;5.460;2024-01-06T03:50:35;100304.09;;;5.79;100.00
58473;BME280;44775;51.564;5.460;2024-01-06T03:53:00;100305.22;;;5.58;100.00
58473;BME280;44775;51.564;5.460;2024-01-06T03:55:25;100299.09;;;5.58;100.00
58473;BME280;44775;51.564;5.460;2024-01-06T03:57:51;100299.78;;;5.32;100.00
58473;BME280;44775;51.564;5.460;2024-01-06T04:00:16;100305.06;;;5.60;100.00
58473;BME280;44775;51.564;5.460;2024-01-06T04:02:42;100302.88;;;5.55;100.00
58473;BME280;44775;51.564;5.460;2024-01-06T04:05:07;100299.22;;;5.56;100.00
58473;BME280;44775;51.564;5.460;2024-01-06T04:07:32;100302.34;;;5.52;100.00
58473;BME280;44775;51.564;5.460;2024-01-06T04:09:57;100318.81;;;5.45;100.00
58473;BME280;44775;51.564;5.460;2024-01-06T04:12:23;100305.22;;;5.76;100.00
58473;BME280;44775;51.564;5.460;2024-01-06T04:14:48;100308.56;;;5.60;100.00
58473;BME280;44775;51.564;5.460;2024-01-06T04:17:13;100309.16;;;5.90;100.00
58473;BME280;44775;51.564;5.460;2024-01-06T04:19:39;100311.94;;;5.98;100.00
58473;BME280;44775;51.564;5.460;2024-01-06T04:22:04;100319.72;;;5.82;100.00
58473;BME280;44775;51.564;5.460;2024-01-06T04:24:29;100329.44;;;5.45;100.00
58473;BME280;44775;51.564;5.460;2024-01-06T04:26:55;100317.91;;;5.37;100.00
58473;BME280;44775;51.564;5.460;2024-01-06T04:29:20;100321.63;;;5.44;100.00
58473;BME280;44775;51.564;5.460;2024-01-06T04:31:46;100323.53;;;5.52;100.00
58473;BME280;44775;51.564;5.460;2024-01-06T04:34:11;100333.16;;;5.25;100.00
58473;BME280;44775;51.564;5.460;2024-01-06T04:36:36;100330.78;;;5.50;100.00
58473;BME280;44775;51.564;5.460;2024-01-06T04:39:02;100336.88;;;5.32;100.00
58473;BME280;44775;51.564;5.460;2024-01-06T04:41:27;100337.69;;;5.05;100.00
58473;BME280;44775;51.564;5.460;2024-01-06T04:43:53;100343.00;;;5.05;100.00
58473;BME280;44775;51.564;5.460;2024-01-06T04:46:18;100349.47;;;4.93;100.00
58473;BME280;44775;51.564;5.460;2024-01-06T04:48:43;100345.66;;;5.05;100.00
58473;BME280;44775;51.564;5.460;2024-01-06T04:51:09;100347.78;;;4.92;100.00
58473;BME280;44775;51.564;5.460;2024-01-06T04:53:36;100350.03;;;4.87;100.00
58473;BME280;44775;51.564;5.460;2024-01-06T04:56:01;100356.28;;;4.95;100.00
58473;BME280;44775;51.564;5.460;2024-01-06T04:58:27;100352.00;;;4.75;100.00
58473;BME280;44775;51.564;5.460;2024-01-06T05:00:52;100355.88;;;4.90;100.00
58473;BME280;44775;51.564;5.460;2024-01-06T05:03:17;100355.06;;;4.80;100.00
58473;BME280;44775;51.564;5.460;2024-01-06T05:05:43;100367.31;;;4.81;100.00
58473;BME280;44775;51.564;5.460;2024-01-06T05:08:08;100360.72;;;5.32;100.00
58473;BME280;44775;51.564;5.460;2024-01-06T05:10:34;100369.34;;;5.44;100.00
58473;BME280;44775;51.564;5.460;2024-01-06T05:12:59;100372.50;;;5.20;100.00
58473;BME280;44775;51.564;5.460;2024-01-06T05:15:24;100376.25;;;5.27;100.00
58473;BME280;44775;51.564;5.460;2024-01-06T05:17:50;100385.78;;;5.10;100.00
58473;BME280;44775;51.564;5.460;2024-01-06T05:20:15;100382.06;;;4.93;100.00
58473;BME280;44775;51.564;5.460;2024-01-06T05:22:40;100385.56;;;4.94;100.00
58473;BME280;44775;51.564;5.460;2024-01-06T05:25:06;100381.28;;;5.20;100.00
58473;BME280;44775;51.564;5.460;2024-01-06T05:27:31;100384.81;;;5.02;100.00
58473;BME280;44775;51.564;5.460;2024-01-06T05:29:56;100387.38;;;4.93;100.00
58473;BME280;44775;51.564;5.460;2024-01-06T05:32:22;100390.88;;;4.84;100.00
58473;BME280;44775;51.564;5.460;2024-01-06T05:34:48;100388.81;;;4.68;100.00
58473;BME280;44775;51.564;5.460;2024-01-06T05:37:13;100386.13;;;4.78;100.00
58473;BME280;44775;51.564;5.460;2024-01-06T05:39:39;100395.44;;;4.92;100.00
58473;BME280;44775;51.564;5.460;2024-01-06T05:42:09;100412.13;;;5.12;100.00
58473;BME280;44775;51.564;5.460;2024-01-06T05:44:36;100411.84;;;5.15;100.00
58473;BME280;44775;51.564;5.460;2024-01-06T05:47:02;100410.97;;;5.24;100.00
58473;BME280;44775;51.564;5.460;2024-01-06T05:49:27;100414.28;;;4.79;100.00
58473;BME280;44775;51.564;5.460;2024-01-06T05:51:53;100413.59;;;4.67;100.00
58473;BME280;44775;51.564;5.460;2024-01-06T05:54:18;100412.41;;;4.99;100.00
58473;BME280;44775;51.564;5.460;2024-01-06T05:56:43;100425.44;;;4.73;100.00
58473;BME280;44775;51.564;5.460;2024-01-06T05:59:08;100411.66;;;4.60;100.00
58473;BME280;44775;51.564;5.460;2024-01-06T06:01:34;100432.97;;;4.78;100.00
58473;BME280;44775;51.564;5.460;2024-01-06T06:03:59;100428.91;;;4.93;100.00
58473;BME280;44775;51.564;5.460;2024-01-06T06:06:24;100437.59;;;4.66;100.00
58473;BME280;44775;51.564;5.460;2024-01-06T06:08:50;100432.13;;;4.87;100.00
58473;BME280;44775;51.564;5.460;2024-01-06T06:11:15;100433.22;;;4.94;100.00
58473;BME280;44775;51.564;5.460;2024-01-06T06:13:41;100447.28;;;4.94;100.00
58473;BME280;44775;51.564;5.460;2024-01-06T06:16:09;100432.69;;;4.71;100.00
58473;BME280;44775;51.564;5.460;2024-01-06T06:18:34;100447.28;;;4.85;100.00
58473;BME280;44775;51.564;5.460;2024-01-06T06:21:00;100455.66;;;4.90;100.00
58473;BME280;44775;51.564;5.460;2024-01-06T06:23:27;100465.72;;;4.67;100.00
58473;BME280;44775;51.564;5.460;2024-01-06T06:25:53;100471.44;;;4.53;100.00
58473;BME280;44775;51.564;5.460;2024-01-06T06:28:19;100475.44;;;4.47;100.00
58473;BME280;44775;51.564;5.460;2024-01-06T06:30:44;100474.06;;;4.53;100.00
58473;BME280;44775;51.564;5.460;2024-01-06T06:33:09;100469.03;;;4.40;100.00
58473;BME280;44775;51.564;5.460;2024-01-06T06:35:35;100482.13;;;4.41;100.00
58473;BME280;44775;51.564;5.460;2024-01-06T06:38:00;100473.22;;;4.33;100.00
58473;BME280;44775;51.564;5.460;2024-01-06T06:40:25;100473.91;;;4.54;100.00
58473;BME280;44775;51.564;5.460;2024-01-06T06:42:50;100485.22;;;4.56;100.00
58473;BME280;44775;51.564;5.460;2024-01-06T06:45:16;100492.19;;;4.67;100.00
58473;BME280;44775;51.564;5.460;2024-01-06T06:47:41;100484.50;;;4.93;100.00
58473;BME280;44775;51.564;5.460;2024-01-06T06:50:06;100499.56;;;4.73;100.00
58473;BME280;44775;51.564;5.460;2024-01-06T06:52:32;100494.94;;;4.94;100.00
58473;BME280;44775;51.564;5.460;2024-01-06T06:54:57;100509.72;;;4.58;100.00
58473;BME280;44775;51.564;5.460;2024-01-06T06:57:23;100510.56;;;4.78;100.00
58473;BME280;44775;51.564;5.460;2024-01-06T06:59:49;100527.84;;;4.92;100.00
58473;BME280;44775;51.564;5.460;2024-01-06T07:02:14;100518.22;;;4.81;100.00
58473;BME280;44775;51.564;5.460;2024-01-06T07:04:40;100533.97;;;4.63;100.00
58473;BME280;44775;51.564;5.460;2024-01-06T07:07:05;100537.31;;;4.85;100.00
58473;BME280;44775;51.564;5.460;2024-01-06T07:09:30;100556.53;;;4.67;100.00
58473;BME280;44775;51.564;5.460;2024-01-06T07:11:56;100550.69;;;4.83;100.00
58473;BME280;44775;51.564;5.460;2024-01-06T07:14:22;100553.19;;;4.75;100.00
58473;BME280;44775;51.564;5.460;2024-01-06T07:16:47;100556.69;;;4.66;100.00
58473;BME280;44775;51.564;5.460;2024-01-06T07:19:12;100559.19;;;4.87;100.00
58473;BME280;44775;51.564;5.460;2024-01-06T07:21:38;100550.81;;;4.72;100.00
58473;BME280;44775;51.564;5.460;2024-01-06T07:24:03;100556.56;;;5.06;100.00
58473;BME280;44775;51.564;5.460;2024-01-06T07:26:28;100567.94;;;4.58;100.00
58473;BME280;44775;51.564;5.460;2024-01-06T07:28:54;100567.81;;;4.60;100.00
58473;BME280;44775;51.564;5.460;2024-01-06T07:31:19;100574.22;;;4.96;100.00
58473;BME280;44775;51.564;5.460;2024-01-06T07:33:45;100577.16;;;4.73;100.00
58473;BME280;44775;51.564;5.460;2024-01-06T07:36:10;100576.63;;;4.89;100.00
58473;BME280;44775;51.564;5.460;2024-01-06T07:38:36;100582.88;;;4.79;100.00
58473;BME280;44775;51.564;5.460;2024-01-06T07:41:01;100578.13;;;4.92;100.00
58473;BME280;44775;51.564;5.460;2024-01-06T07:43:27;100572.69;;;5.32;100.00
58473;BME280;44775;51.564;5.460;2024-01-06T07:45:52;100574.41;;;5.14;100.00
58473;BME280;44775;51.564;5.460;2024-01-06T07:48:17;100584.16;;;5.04;100.00
58473;BME280;44775;51.564;5.460;2024-01-06T07:50:43;100590.00;;;5.07;100.00
58473;BME280;44775;51.564;5.460;2024-01-06T07:53:08;100594.56;;;5.54;100.00
58473;BME280;44775;51.564;5.460;2024-01-06T07:55:33;100595.25;;;5.56;100.00
58473;BME280;44775;51.564;5.460;2024-01-06T07:57:59;100599.13;;;5.81;100.00
58473;BME280;44775;51.564;5.460;2024-01-06T08:00:24;100601.97;;;5.50;100.00
58473;BME280;44775;51.564;5.460;2024-01-06T08:02:50;100606.47;;;5.30;100.00
58473;BME280;44775;51.564;5.460;2024-01-06T08:05:15;100615.66;;;5.16;100.00
58473;BME280;44775;51.564;5.460;2024-01-06T08:07:40;100616.34;;;5.18;100.00
58473;BME280;44775;51.564;5.460;2024-01-06T08:10:06;100605.19;;;5.15;100.00
58473;BME280;44775;51.564;5.460;2024-01-06T08:12:31;100621.94;;;5.25;100.00
58473;BME280;44775;51.564;5.460;2024-01-06T08:14:59;100635.03;;;5.17;100.00
58473;BME280;44775;51.564;5.460;2024-01-06T08:17:24;100639.06;;;5.11;100.00
58473;BME280;44775;51.564;5.460;2024-01-06T08:19:49;100643.00;;;5.27;100.00
58473;BME280;44775;51.564;5.460;2024-01-06T08:22:15;100642.84;;;5.18;100.00
58473;BME280;44775;51.564;5.460;2024-01-06T08:24:40;100648.94;;;5.09;100.00
58473;BME280;44775;51.564;5.460;2024-01-06T08:27:05;100652.81;;;4.76;100.00
58473;BME280;44775;51.564;5.460;2024-01-06T08:29:31;100653.00;;;5.04;100.00
58473;BME280;44775;51.564;5.460;2024-01-06T08:31:56;100655.25;;;5.47;100.00
58473;BME280;44775;51.564;5.460;2024-01-06T08:34:22;100662.63;;;5.05;100.00
58473;BME280;44775;51.564;5.460;2024-01-06T08:36:48;100671.00;;;5.00;100.00
58473;BME280;44775;51.564;5.460;2024-01-06T08:39:13;100668.72;;;4.76;100.00
58473;BME280;44775;51.564;5.460;2024-01-06T08:41:39;100671.97;;;5.09;100.00
58473;BME280;44775;51.564;5.460;2024-01-06T08:44:04;100677.78;;;5.03;100.00
58473;BME280;44775;51.564;5.460;2024-01-06T08:46:30;100675.06;;;5.24;100.00
58473;BME280;44775;51.564;5.460;2024-01-06T08:48:56;100685.38;;;5.36;100.00
58473;BME280;44775;51.564;5.460;2024-01-06T08:51:21;100693.31;;;5.07;100.00
58473;BME280;44775;51.564;5.460;2024-01-06T08:53:46;100703.63;;;5.10;100.00
58473;BME280;44775;51.564;5.460;2024-01-06T08:56:12;100683.84;;;4.64;100.00
58473;BME280;44775;51.564;5.460;2024-01-06T08:58:37;100701.94;;;4.59;100.00
58473;BME280;44775;51.564;5.460;2024-01-06T09:01:02;100711.09;;;4.55;100.00
58473;BME280;44775;51.564;5.460;2024-01-06T09:03:28;100705.38;;;4.50;100.00
58473;BME280;44775;51.564;5.460;2024-01-06T09:05:55;100713.72;;;4.86;100.00
58473;BME280;44775;51.564;5.460;2024-01-06T09:08:21;100710.16;;;4.96;100.00
58473;BME280;44775;51.564;5.460;2024-01-06T09:10:46;100718.47;;;4.92;100.00
58473;BME280;44775;51.564;5.460;2024-01-06T09:13:11;100722.53;;;4.86;100.00
58473;BME280;44775;51.564;5.460;2024-01-06T09:15:37;100721.59;;;5.07;100.00
58473;BME280;44775;51.564;5.460;2024-01-06T09:18:02;100712.91;;;4.95;100.00
58473;BME280;44775;51.564;5.460;2024-01-06T09:20:28;100719.75;;;4.97;100.00
58473;BME280;44775;51.564;5.460;2024-01-06T09:22:53;100736.25;;;5.11;100.00
58473;BME280;44775;51.564;5.460;2024-01-06T09:25:18;100732.22;;;5.26;100.00
58473;BME280;44775;51.564;5.460;2024-01-06T09:27:44;100748.28;;;4.84;100.00
58473;BME280;44775;51.564;5.460;2024-01-06T09:30:10;100744.47;;;5.17;100.00
58473;BME280;44775;51.564;5.460;2024-01-06T09:32:36;100737.84;;;4.92;100.00
58473;BME280;44775;51.564;5.460;2024-01-06T09:35:01;100739.78;;;5.60;100.00
58473;BME280;44775;51.564;5.460;2024-01-06T09:37:26;100746.91;;;5.79;100.00
58473;BME280;44775;51.564;5.460;2024-01-06T09:39:52;100755.28;;;5.64;100.00
58473;BME280;44775;51.564;5.460;2024-01-06T09:42:17;100762.38;;;5.83;100.00
58473;BME280;44775;51.564;5.460;2024-01-06T09:44:42;100757.94;;;6.13;100.00
58473;BME280;44775;51.564;5.460;2024-01-06T09:47:11;100773.47;;;5.98;100.00
58473;BME280;44775;51.564;5.460;2024-01-06T09:49:38;100766.31;;;6.28;100.00
58473;BME280;44775;51.564;5.460;2024-01-06T09:52:13;100777.00;;;6.46;100.00
58473;BME280;44775;51.564;5.460;2024-01-06T09:54:46;100775.91;;;6.48;100.00
58473;BME280;44775;51.564;5.460;2024-01-06T09:57:13;100785.63;;;6.57;100.00
58473;BME280;44775;51.564;5.460;2024-01-06T09:59:39;100800.91;;;6.36;100.00
58473;BME280;44775;51.564;5.460;2024-01-06T10:02:07;100798.38;;;6.34;100.00
58473;BME280;44775;51.564;5.460;2024-01-06T10:04:33;100800.75;;;6.47;100.00
58473;BME280;44775;51.564;5.460;2024-01-06T10:06:58;100793.09;;;6.34;100.00
58473;BME280;44775;51.564;5.460;2024-01-06T10:09:27;100806.81;;;6.10;100.00
58473;BME280;44775;51.564;5.460;2024-01-06T10:11:56;100798.09;;;6.37;100.00
58473;BME280;44775;51.564;5.460;2024-01-06T10:14:23;100812.91;;;6.50;100.00
58473;BME280;44775;51.564;5.460;2024-01-06T10:16:50;100811.66;;;6.34;100.00
58473;BME280;44775;51.564;5.460;2024-01-06T10:19:16;100815.66;;;6.58;100.00
58473;BME280;44775;51.564;5.460;2024-01-06T10:21:41;100836.41;;;5.96;100.00
58473;BME280;44775;51.564;5.460;2024-01-06T10:24:09;100819.94;;;6.12;100.00
58473;BME280;44775;51.564;5.460;2024-01-06T10:26:35;100824.53;;;6.10;100.00
58473;BME280;44775;51.564;5.460;2024-01-06T10:29:00;100826.75;;;6.34;100.00
58473;BME280;44775;51.564;5.460;2024-01-06T10:31:29;100822.97;;;6.36;100.00
58473;BME280;44775;51.564;5.460;2024-01-06T10:33:54;100831.38;;;6.03;100.00
58473;BME280;44775;51.564;5.460;2024-01-06T10:36:21;100829.56;;;6.13;100.00
58473;BME280;44775;51.564;5.460;2024-01-06T10:38:47;100828.59;;;6.24;100.00
58473;BME280;44775;51.564;5.460;2024-01-06T10:41:15;100823.44;;;6.12;100.00
58473;BME280;44775;51.564;5.460;2024-01-06T10:43:41;100838.19;;;5.86;100.00
58473;BME280;44775;51.564;5.460;2024-01-06T10:46:09;100841.72;;;5.96;100.00
58473;BME280;44775;51.564;5.460;2024-01-06T10:48:37;100840.06;;;6.05;100.00
58473;BME280;44775;51.564;5.460;2024-01-06T10:51:04;100840.69;;;5.68;100.00
58473;BME280;44775;51.564;5.460;2024-01-06T10:53:32;100846.03;;;5.87;100.00
58473;BME280;44775;51.564;5.460;2024-01-06T10:55:58;100845.13;;;5.58;100.00
58473;BME280;44775;51.564;5.460;2024-01-06T10:58:24;100841.91;;;5.54;100.00
58473;BME280;44775;51.564;5.460;2024-01-06T11:00:50;100849.94;;;5.93;100.00
58473;BME280;44775;51.564;5.460;2024-01-06T11:03:17;100835.44;;;6.26;100.00
58473;BME280;44775;51.564;5.460;2024-01-06T11:05:42;100842.94;;;6.41;100.00
58473;BME280;44775;51.564;5.460;2024-01-06T11:08:11;100847.59;;;6.19;100.00
58473;BME280;44775;51.564;5.460;2024-01-06T11:10:37;100853.97;;;5.87;100.00
58473;BME280;44775;51.564;5.460;2024-01-06T11:13:14;100854.22;;;5.75;100.00
58473;BME280;44775;51.564;5.460;2024-01-06T11:15:46;100853.69;;;5.90;100.00
58473;BME280;44775;51.564;5.460;2024-01-06T11:18:31;100860.13;;;5.88;100.00
58473;BME280;44775;51.564;5.460;2024-01-06T11:24:15;100857.91;;;5.93;100.00
58473;BME280;44775;51.564;5.460;2024-01-06T11:26:44;100854.28;;;6.13;100.00
58473;BME280;44775;51.564;5.460;2024-01-06T11:29:10;100872.44;;;6.08;100.00
58473;BME280;44775;51.564;5.460;2024-01-06T11:31:36;100868.25;;;5.96;100.00
58473;BME280;44775;51.564;5.460;2024-01-06T11:34:17;100861.28;;;6.05;100.00
58473;BME280;44775;51.564;5.460;2024-01-06T11:36:50;100866.72;;;6.03;100.00
58473;BME280;44775;51.564;5.460;2024-01-06T11:39:37;100870.97;;;5.75;100.00
58473;BME280;44775;51.564;5.460;2024-01-06T11:42:05;100869.59;;;5.90;100.00
58473;BME280;44775;51.564;5.460;2024-01-06T11:44:36;100869.56;;;5.71;100.00
58473;BME280;44775;51.564;5.460;2024-01-06T11:47:02;100865.13;;;5.31;100.00
58473;BME280;44775;51.564;5.460;2024-01-06T11:49:29;100863.16;;;5.83;100.00
58473;BME280;44775;51.564;5.460;2024-01-06T11:51:55;100864.16;;;5.32;100.00
58473;BME280;44775;51.564;5.460;2024-01-06T11:54:21;100867.59;;;5.54;100.00
58473;BME280;44775;51.564;5.460;2024-01-06T11:56:47;100865.88;;;5.53;100.00
58473;BME280;44775;51.564;5.460;2024-01-06T11:59:12;100873.16;;;5.51;100.00
58473;BME280;44775;51.564;5.460;2024-01-06T12:01:38;100866.94;;;5.71;100.00
58473;BME280;44775;51.564;5.460;2024-01-06T12:04:04;100864.06;;;5.43;100.00
58473;BME280;44775;51.564;5.460;2024-01-06T12:06:30;100867.13;;;5.49;100.00
58473;BME280;44775;51.564;5.460;2024-01-06T12:09:05;100873.38;;;5.38;100.00
58473;BME280;44775;51.564;5.460;2024-01-06T12:11:31;100874.31;;;5.67;100.00
58473;BME280;44775;51.564;5.460;2024-01-06T12:13:56;100871.25;;;5.72;100.00
58473;BME280;44775;51.564;5.460;2024-01-06T12:16:22;100870.75;;;6.07;100.00
58473;BME280;44775;51.564;5.460;2024-01-06T12:18:47;100857.22;;;6.20;100.00
58473;BME280;44775;51.564;5.460;2024-01-06T12:21:13;100867.13;;;6.37;100.00
58473;BME280;44775;51.564;5.460;2024-01-06T12:23:38;100881.09;;;6.20;100.00
58473;BME280;44775;51.564;5.460;2024-01-06T12:26:04;100860.16;;;6.36;100.00
58473;BME280;44775;51.564;5.460;2024-01-06T12:28:29;100875.09;;;5.99;100.00
58473;BME280;44775;51.564;5.460;2024-01-06T12:30:54;100879.56;;;6.08;100.00
58473;BME280;44775;51.564;5.460;2024-01-06T12:33:20;100871.81;;;5.76;100.00
58473;BME280;44775;51.564;5.460;2024-01-06T12:35:45;100878.66;;;5.78;100.00
58473;BME280;44775;51.564;5.460;2024-01-06T12:38:11;100873.22;;;5.80;100.00
58473;BME280;44775;51.564;5.460;2024-01-06T12:40:37;100878.31;;;6.22;100.00
58473;BME280;44775;51.564;5.460;2024-01-06T12:43:04;100881.25;;;6.19;100.00
58473;BME280;44775;51.564;5.460;2024-01-06T12:45:29;100877.13;;;5.85;100.00
58473;BME280;44775;51.564;5.460;2024-01-06T12:47:54;100879.72;;;5.56;100.00